Terminal Aerodrome Forecast
Issued by NWS Cleveland, OH

Home | Current Version | Previous Version | Graphics & Text | Print | Product List | Glossary On
Versions: 1 2 3 4 5 6 7 8 9 10 11 12 13 14 15 16 17 18 19 20 21 22 23 24 25
309
FTUS41 KCLE 240854 AAB
TAFCLE
TAF AMD
KCLE 240854Z 2409/2512 VRB03KT P6SM OVC200
     FM241300 VRB04KT P6SM SCT035 OVC200
     FM241500 24008KT P6SM BKN120 OVC200
     FM241900 35012KT P6SM SCT040 BKN200
     FM242300 03005KT P6SM SCT120 BKN200
     FM250400 19008KT P6SM SCT050 BKN120=

USA.gov is the U.S. government's official web portal to all federal, state and local government web resources and services.